Fort Montgomery, New York
Current Conditions -  °F | °C
As of 6:45 PM on Wednesday 26 Nov 2014 (Local Time) from KSWF Reporting Station
Light Snow Light Snow  
Wind Chill: 22°   Ceiling: 300
Heat Index: 32°   Visibility: 1.5mi
Dew Point: 32°   Wind: 14mph
Humidity: 100%   Direction: 20°NNE
Pressure: 29.86"   Gusts: 23mph
Location:  41.34°N, 73.99°W
Report Text: KSWF 262345Z 02012G20KT 1 1/2SM -SN BKN003 OVC008 00/00 A2986
Loading
Personal Weather Stations






























Interactive Weather Map New forecast layout! Learn more

10-Day Weather Forecast

Advertisements
Track Severe Weather on mobile